Accueil
METAR-TAF:

METAR-TAF

Aéroports :

Pocono Mountains Municipal Airport

Mount Pocono, Pennsylvanie, États-Unis

latitude: 41-08-20N, longitude: 075-23-46W, altitude: 584 m

Observation

Le bulletin a été fait il y a 12 minutes, à 13:43 UTC
Vent 8 kt de est
Température 10°C
Humidité 100%
Pression 1027 hPa
Visibilité: 6.4 km
Quelques nuages à une hauteur de 300 ft
Ciel couvert à une hauteur de 700 ft
pluie faible, brume

METAR: KMPO 251343Z AUTO 08008KT 4SM -RA BR FEW003 OVC007 10/10 A3033 RMK AO2 P0013 T01000100

Heure: 09:55 (13:55 UTC)


TAF: absent

Observations et prévisions météorologiques de plus de 4000 aéroports (messages METAR et TAF).

Les stations disponibles sont représentées par des disques jaunes et rouges sur la carte.

Passer la souris dessus pour voir le nom de la station.

Cliquer dessus pour voir les observations et prévisions météorologiques.

Pour changer de carte: cliquez sur les boutons verts avec une croix noire pour zoomer, sur le bouton vert avec un tiret pour effectuer un zoom arrière, ou sur les flèches vertes pour les cartes adjacentes.


METAR-TAF: